Terminal Aerodrome Forecast
Issued by NWS

Home | Current Version | Previous Version | Text Only | Print | Product List | Glossary On
Versions: 1 2 3 4 5 6 7 8 9 10 11 12 13 14 15 16 17 18 19 20 21 22
000
FTUS46 KSGX 272300
TAFONT
TAF
KONT 272320Z 2800/2906 27006KT P6SM SCT250
     FM280200 VRB05KT P6SM BKN250
     FM282100 25007KT P6SM BKN200
     FM290300 VRB03KT P6SM BKN200=

USA.gov is the U.S. government's official web portal to all federal, state and local government web resources and services.